Terminal Aerodrome Forecast
Issued by NWS Cleveland, OH

Home | Current Version | Previous Version | Graphics & Text | Print | Product List | Glossary Off
Versions: 1 2 3 4 5 6 7 8 9 10 11 12 13 14 15 16 17 18 19 20 21 22 23

000
FTUS41 KCLE 040500
TAFCAK
TAF
KCAK 040540Z 0406/0506 27012G22KT P6SM SCT008 OVC012
      TEMPO 0406/0408 OVC008
     FM041000 27012KT P6SM OVC015
     FM041600 29008KT P6SM OVC015=

USA.gov is the U.S. government's official web portal to all federal, state and local government web resources and services.